Time;durP1;ratioP1;P1;durP2;ratioP2;P2;SDS_P1;SDS_P2;PMS_P1;PMS_P2;Temp;Humidity;BMP_temperature;BMP_pressure;BME280_temperature;BME280_humidity;BME280_pressure;Samples;Min_cycle;Max_cycle;Signal;HPM_P1;HPM_P2
2021/03/22 05:01:09;;;;;;;13.70;3.30;;;4.90;99.90;;;;;;5729031;22;20528;-71
2021/03/22 05:03:36;;;;;;;15.50;3.87;;;4.90;99.90;;;;;;5037578;28;20456;-72
2021/03/22 05:06:02;;;;;;;16.37;3.50;;;5.00;99.90;;;;;;5036872;28;20454;-72
2021/03/22 05:08:28;;;;;;;10.00;3.73;;;5.00;99.90;;;;;;5040084;28;20463;-71
2021/03/22 05:10:58;;;;;;;14.13;3.27;;;4.90;99.90;;;;;;5040142;28;20468;-71
2021/03/22 05:13:24;;;;;;;10.93;3.40;;;4.90;99.90;;;;;;5037024;28;20487;-71
2021/03/22 05:15:51;;;;;;;13.80;3.93;;;4.90;99.90;;;;;;5036855;28;20448;-71
2021/03/22 05:18:19;;;;;;;14.70;3.47;;;4.90;99.90;;;;;;5036612;28;20459;-71
2021/03/22 05:20:47;;;;;;;11.23;3.60;;;4.80;99.90;;;;;;5036561;28;20480;-72
2021/03/22 05:23:16;;;;;;;18.23;4.77;;;4.80;99.90;;;;;;5035611;28;20463;-71
2021/03/22 05:25:42;;;;;;;12.80;3.73;;;4.80;99.90;;;;;;5036337;28;20894;-71
2021/03/22 05:28:10;;;;;;;17.47;3.23;;;4.70;99.90;;;;;;5036132;28;20514;-73
2021/03/22 05:30:38;;;;;;;10.97;3.07;;;4.70;99.90;;;;;;5036093;28;20468;-72
2021/03/22 05:33:06;;;;;;;15.60;3.57;;;4.80;99.90;;;;;;5036243;28;20458;-72
2021/03/22 05:35:34;;;;;;;11.70;3.70;;;4.80;99.90;;;;;;5036640;28;20464;-71
2021/03/22 05:38:01;;;;;;;14.57;3.53;;;4.80;99.90;;;;;;5045957;28;20934;-71
2021/03/22 05:40:33;;;;;;;11.97;3.73;;;4.80;99.90;;;;;;5043292;28;20506;-72
2021/03/22 05:43:13;;;;;;;14.03;3.90;;;4.80;99.90;;;;;;5044784;28;20448;-71
2021/03/22 05:45:54;;;;;;;11.30;3.63;;;4.90;99.90;;;;;;5043670;28;20432;-72
2021/03/22 05:48:46;;;;;;;16.37;3.57;;;4.80;99.90;;;;;;5040281;28;20464;-72
2021/03/22 05:51:34;;;;;;;10.23;3.27;;;4.90;99.90;;;;;;5028972;28;20479;-71
2021/03/22 05:54:08;;;;;;;17.47;4.53;;;4.90;99.90;;;;;;5036205;28;20432;-71
2021/03/22 05:56:45;;;;;;;16.40;4.07;;;5.00;99.90;;;;;;5035794;28;20435;-72
2021/03/22 05:59:24;;;;;;;20.80;5.30;;;5.00;99.90;;;;;;5035699;28;20475;-71
2021/03/22 06:01:55;;;;;;;19.10;5.00;;;5.10;99.90;;;;;;5035355;28;20990;-72
2021/03/22 06:04:28;;;;;;;19.03;4.67;;;5.20;99.90;;;;;;5036059;28;20538;-72
2021/03/22 06:06:56;;;;;;;13.57;3.53;;;5.20;99.90;;;;;;5036375;28;20446;-72
2021/03/22 06:09:32;;;;;;;19.60;4.77;;;5.20;99.90;;;;;;5035636;28;20454;-71
2021/03/22 06:12:08;;;;;;;11.20;3.70;;;5.20;99.90;;;;;;5035867;28;20993;-72
2021/03/22 06:14:43;;;;;;;19.50;4.77;;;5.20;99.90;;;;;;5051055;28;20443;-72
2021/03/22 06:17:16;;;;;;;23.47;5.07;;;5.30;99.90;;;;;;5035708;28;20436;-72
2021/03/22 06:19:49;;;;;;;15.43;3.93;;;5.20;99.90;;;;;;5035174;28;20472;-72
2021/03/22 06:22:26;;;;;;;15.87;4.07;;;5.20;99.90;;;;;;5035823;28;20482;-71
2021/03/22 06:24:53;;;;;;;19.53;4.77;;;5.10;99.90;;;;;;5036253;28;20436;-72
2021/03/22 06:27:20;;;;;;;20.07;5.00;;;5.10;99.90;;;;;;5035221;28;20514;-69
2021/03/22 06:29:47;;;;;;;9.80;4.00;;;5.20;99.90;;;;;;5035982;28;20460;-70
2021/03/22 06:32:20;;;;;;;18.33;4.60;;;5.10;99.90;;;;;;5035466;28;20515;-71
2021/03/22 06:34:52;;;;;;;16.93;4.87;;;5.10;99.90;;;;;;5034365;28;20498;-71
2021/03/22 06:37:22;;;;;;;22.33;5.40;;;5.20;99.90;;;;;;5036526;28;20493;-71
2021/03/22 06:39:54;;;;;;;17.77;4.00;;;5.10;99.90;;;;;;5036362;28;20865;-69
2021/03/22 06:42:22;;;;;;;17.77;4.83;;;5.20;99.90;;;;;;5035755;28;20476;-71
2021/03/22 06:44:50;;;;;;;21.33;4.60;;;5.10;99.90;;;;;;5036254;28;20800;-71
2021/03/22 06:47:23;;;;;;;18.23;4.57;;;5.10;99.90;;;;;;5035389;28;20843;-72
2021/03/22 06:49:52;;;;;;;24.53;4.77;;;5.10;99.90;;;;;;5035265;28;20437;-70
2021/03/22 06:52:22;;;;;;;20.83;4.63;;;5.10;99.90;;;;;;5035505;28;20478;-72
2021/03/22 06:54:50;;;;;;;17.03;5.63;;;5.00;99.90;;;;;;5037877;28;20448;-72
2021/03/22 06:57:20;;;;;;;14.70;4.27;;;5.00;99.90;;;;;;5035330;28;20456;-70
2021/03/22 07:00:11;;;;;;;15.17;4.70;;;5.00;99.90;;;;;;5034616;28;20989;-71
2021/03/22 07:02:43;;;;;;;15.77;5.37;;;5.10;99.90;;;;;;5034714;28;20443;-71
2021/03/22 07:05:27;;;;;;;18.67;5.40;;;5.20;99.90;;;;;;5035323;28;20474;-69
2021/03/22 07:07:56;;;;;;;21.13;5.47;;;5.30;99.90;;;;;;5037624;28;20448;-70
2021/03/22 07:10:25;;;;;;;19.80;5.20;;;5.40;99.90;;;;;;5040472;28;20444;-68
2021/03/22 07:13:06;;;;;;;17.43;4.63;;;5.50;99.90;;;;;;5034532;28;20454;-68
2021/03/22 07:15:34;;;;;;;20.60;5.57;;;5.80;99.90;;;;;;5035185;28;20821;-71
2021/03/22 07:18:04;;;;;;;19.87;4.40;;;5.90;99.90;;;;;;5040243;28;20456;-71
2021/03/22 07:20:31;;;;;;;14.83;5.23;;;6.10;99.90;;;;;;5043846;28;21148;-71
2021/03/22 07:23:29;;;;;;;25.63;4.40;;;6.30;99.90;;;;;;5035516;28;20452;-70
2021/03/22 07:26:00;;;;;;;20.87;6.17;;;6.20;99.90;;;;;;5035961;28;20807;-70
2021/03/22 07:28:39;;;;;;;19.37;5.80;;;6.20;99.90;;;;;;5035227;28;20436;-70
2021/03/22 07:31:13;;;;;;;15.73;4.97;;;6.10;99.90;;;;;;5035034;28;20482;-69
2021/03/22 07:33:51;;;;;;;18.50;5.00;;;6.00;99.90;;;;;;5035295;28;20803;-70
2021/03/22 07:36:36;;;;;;;19.73;4.17;;;5.90;99.90;;;;;;5035554;28;20494;-70
2021/03/22 07:39:31;;;;;;;14.70;3.97;;;5.80;99.90;;;;;;5035067;28;20918;-69
2021/03/22 07:42:25;;;;;;;16.27;4.60;;;5.60;99.90;;;;;;5043854;28;20490;-70
2021/03/22 07:45:10;;;;;;;14.60;3.67;;;5.60;99.90;;;;;;5047201;28;20444;-69
2021/03/22 07:47:47;;;;;;;24.10;4.80;;;5.60;99.90;;;;;;5048130;28;20435;-69
2021/03/22 07:50:21;;;;;;;18.30;4.43;;;5.70;99.90;;;;;;5044983;28;20454;-69
2021/03/22 07:52:53;;;;;;;15.57;4.37;;;5.80;99.90;;;;;;5042498;28;20432;-72
2021/03/22 07:55:48;;;;;;;10.43;3.47;;;5.90;99.90;;;;;;5044154;28;20450;-69
2021/03/22 07:58:38;;;;;;;15.67;3.60;;;5.80;99.90;;;;;;5031038;28;20455;-70
2021/03/22 08:01:12;;;;;;;15.73;5.30;;;5.80;99.90;;;;;;5013405;28;20487;-70
2021/03/22 08:04:04;;;;;;;11.13;3.27;;;5.80;99.90;;;;;;5035898;28;20436;-70
2021/03/22 08:06:49;;;;;;;10.53;2.87;;;5.80;99.90;;;;;;5035450;28;20903;-69
2021/03/22 08:09:34;;;;;;;11.60;3.20;;;5.90;99.90;;;;;;5035732;28;20444;-69
2021/03/22 08:12:08;;;;;;;8.67;3.17;;;6.10;99.90;;;;;;5035541;28;20472;-70
2021/03/22 08:14:37;;;;;;;14.67;3.50;;;6.10;99.90;;;;;;5034983;28;20440;-70
2021/03/22 08:17:38;;;;;;;8.80;2.90;;;6.10;99.90;;;;;;5034674;28;20546;-70
2021/03/22 08:20:16;;;;;;;11.50;2.90;;;6.00;99.90;;;;;;5034453;28;20475;-69
2021/03/22 08:22:51;;;;;;;13.33;3.73;;;6.10;99.90;;;;;;5074500;22;20483;-68
2021/03/22 08:25:29;;;;;;;18.37;3.93;;;6.10;99.90;;;;;;5052939;28;20918;-68
2021/03/22 08:28:05;;;;;;;12.37;3.40;;;6.10;99.90;;;;;;5053095;28;20435;-67
2021/03/22 08:30:40;;;;;;;12.47;3.90;;;6.00;99.90;;;;;;5053024;28;20434;-68
2021/03/22 08:33:23;;;;;;;10.40;4.07;;;6.10;99.90;;;;;;5033710;28;20840;-68
2021/03/22 08:35:56;;;;;;;9.03;2.93;;;6.30;99.90;;;;;;5033610;28;20440;-68
2021/03/22 08:38:37;;;;;;;9.20;3.10;;;6.40;99.90;;;;;;5033086;28;20483;-66
2021/03/22 08:41:05;;;;;;;8.50;3.57;;;6.60;99.90;;;;;;5032900;28;20486;-67
2021/03/22 08:43:44;;;;;;;6.90;3.10;;;7.10;99.90;;;;;;5032976;28;20448;-67
2021/03/22 08:46:26;;;;;;;7.97;3.57;;;7.30;99.90;;;;;;5033183;28;20444;-67
2021/03/22 08:48:52;;;;;;;9.73;3.30;;;7.80;99.90;;;;;;5032999;28;20436;-67
2021/03/22 08:51:25;;;;;;;11.43;3.07;;;8.10;99.90;;;;;;5032777;28;20476;-66
2021/03/22 08:53:53;;;;;;;14.27;2.90;;;8.50;99.90;;;;;;5032940;28;20539;-67
2021/03/22 08:56:29;;;;;;;9.60;3.00;;;8.70;99.90;;;;;;5032839;28;20460;-67
2021/03/22 08:59:00;;;;;;;16.10;3.43;;;8.50;99.90;;;;;;5035921;28;20440;-68
2021/03/22 09:01:30;;;;;;;12.30;3.17;;;8.50;99.90;;;;;;5036116;28;20556;-68
2021/03/22 09:04:16;;;;;;;8.33;2.10;;;8.40;99.90;;;;;;5035914;28;20460;-68
2021/03/22 09:07:02;;;;;;;12.50;2.30;;;8.10;99.90;;;;;;5034971;28;20440;-68
2021/03/22 09:09:30;;;;;;;5.73;2.27;;;7.90;99.90;;;;;;5036033;28;20907;-68
2021/03/22 09:11:58;;;;;;;17.50;3.40;;;7.70;99.90;;;;;;5036559;28;20511;-68
2021/03/22 09:14:40;;;;;;;13.77;3.93;;;7.60;99.90;;;;;;5036084;28;20555;-68
2021/03/22 09:17:39;;;;;;;12.33;4.20;;;7.60;99.90;;;;;;5036125;28;20447;-68
2021/03/22 09:20:20;;;;;;;8.20;2.80;;;7.30;99.90;;;;;;5035373;28;20484;-68
2021/03/22 09:22:56;;;;;;;6.87;2.67;;;7.20;99.90;;;;;;5035603;28;20483;-68
2021/03/22 09:25:56;;;;;;;10.77;2.80;;;7.20;99.90;;;;;;5035548;28;20946;-68
2021/03/22 09:28:33;;;;;;;12.40;3.63;;;6.80;99.90;;;;;;5035822;28;20452;-68
2021/03/22 09:31:02;;;;;;;11.80;2.90;;;6.80;99.90;;;;;;5035587;28;20463;-66
2021/03/22 09:33:48;;;;;;;6.80;2.83;;;6.90;99.90;;;;;;5035582;28;20451;-66
2021/03/22 09:36:30;;;;;;;10.87;2.63;;;7.00;99.90;;;;;;5035612;28;20452;-66
2021/03/22 09:38:58;;;;;;;8.93;3.27;;;7.30;99.90;;;;;;5035632;28;20436;-67
2021/03/22 09:42:14;;;;;;;11.00;2.67;;;7.50;99.90;;;;;;5038159;28;20533;-68
2021/03/22 09:45:17;;;;;;;7.50;3.67;;;7.80;99.90;;;;;;5041669;28;20436;-68
2021/03/22 09:48:03;;;;;;;7.00;2.53;;;7.90;99.90;;;;;;5042278;28;20440;-69
2021/03/22 09:50:30;;;;;;;9.10;2.93;;;8.00;99.90;;;;;;5036204;28;20436;-66
2021/03/22 09:53:13;;;;;;;7.80;2.40;;;8.20;99.90;;;;;;5035617;28;20472;-66
2021/03/22 09:55:44;;;;;;;6.80;2.90;;;8.30;99.90;;;;;;5035286;28;20447;-66
2021/03/22 09:58:28;;;;;;;11.60;2.90;;;8.10;99.90;;;;;;5034934;28;20787;-66
2021/03/22 10:01:00;;;;;;;11.67;3.30;;;8.00;99.90;;;;;;5035171;28;20468;-66
2021/03/22 10:03:40;;;;;;;4.47;2.27;;;8.00;99.90;;;;;;5035444;28;20456;-66
2021/03/22 10:06:29;;;;;;;10.60;4.40;;;7.90;99.90;;;;;;5035349;28;20481;-65
2021/03/22 10:08:56;;;;;;;9.97;3.03;;;8.00;99.90;;;;;;5035019;28;20440;-65
2021/03/22 10:11:28;;;;;;;8.77;3.10;;;7.80;99.90;;;;;;5034662;28;20493;-66
2021/03/22 10:14:00;;;;;;;10.40;2.97;;;7.70;99.90;;;;;;5034716;28;20444;-65
2021/03/22 10:16:31;;;;;;;9.13;2.37;;;7.70;99.90;;;;;;5035319;28;20444;-66
2021/03/22 10:19:01;;;;;;;11.20;3.20;;;7.50;99.90;;;;;;5034933;28;20482;-66
2021/03/22 10:21:30;;;;;;;6.73;2.93;;;7.40;99.90;;;;;;5034089;28;20989;-67
2021/03/22 10:24:00;;;;;;;10.23;2.77;;;7.30;99.90;;;;;;5034713;28;20459;-67
2021/03/22 10:26:30;;;;;;;9.30;3.13;;;7.00;99.90;;;;;;5034889;28;20497;-66
2021/03/22 10:29:15;;;;;;;4.60;2.57;;;6.90;99.90;;;;;;5034943;28;21028;-66
2021/03/22 10:31:42;;;;;;;7.50;3.30;;;6.70;99.90;;;;;;5035516;28;20479;-66
2021/03/22 10:34:20;;;;;;;8.10;2.77;;;6.50;99.90;;;;;;5035631;28;20463;-69
2021/03/22 10:36:46;;;;;;;10.83;3.60;;;6.50;99.90;;;;;;5035375;28;20486;-65
2021/03/22 10:39:23;;;;;;;15.07;3.27;;;6.60;99.90;;;;;;5035139;28;20452;-66
2021/03/22 10:41:49;;;;;;;7.13;3.37;;;6.60;99.90;;;;;;5035359;28;20482;-66
2021/03/22 10:44:20;;;;;;;9.77;3.57;;;6.50;99.90;;;;;;5035533;28;20459;-66
2021/03/22 10:46:47;;;;;;;13.90;3.30;;;6.50;99.90;;;;;;5035371;28;20464;-67
2021/03/22 10:49:23;;;;;;;6.70;2.90;;;6.60;99.90;;;;;;5035425;28;20447;-66
2021/03/22 10:51:52;;;;;;;6.20;2.37;;;6.60;99.90;;;;;;5034741;28;20475;-66
2021/03/22 10:54:19;;;;;;;9.53;2.77;;;6.50;99.90;;;;;;5035297;28;20447;-69
2021/03/22 10:56:55;;;;;;;8.47;3.47;;;6.70;99.90;;;;;;5035207;28;20436;-70
2021/03/22 10:59:24;;;;;;;6.77;2.80;;;7.00;99.90;;;;;;5035162;28;20440;-68
2021/03/22 11:01:53;;;;;;;8.40;3.33;;;7.30;99.90;;;;;;5034850;28;20464;-72
2021/03/22 11:04:25;;;;;;;6.53;3.20;;;7.50;99.90;;;;;;5034783;28;20456;-69
2021/03/22 11:06:52;;;;;;;6.00;2.83;;;7.80;99.90;;;;;;5035202;28;20804;-67
2021/03/22 11:09:25;;;;;;;10.53;2.87;;;8.10;99.90;;;;;;5034874;28;20456;-69
2021/03/22 11:11:52;;;;;;;10.00;3.00;;;7.90;99.90;;;;;;5034609;28;20463;-69
2021/03/22 11:14:22;;;;;;;10.37;3.53;;;8.00;99.90;;;;;;5034434;28;20475;-70
2021/03/22 11:16:49;;;;;;;4.97;2.83;;;8.00;99.90;;;;;;5034640;28;20479;-69
2021/03/22 11:19:33;;;;;;;10.20;2.80;;;8.00;99.90;;;;;;5034706;28;20463;-69
2021/03/22 11:22:01;;;;;;;8.70;2.93;;;8.10;99.90;;;;;;5034256;28;20480;-69
2021/03/22 11:24:37;;;;;;;9.67;3.20;;;8.10;99.90;;;;;;5034592;28;20452;-70
2021/03/22 11:27:06;;;;;;;6.07;3.10;;;8.20;99.90;;;;;;5034723;28;20435;-69
2021/03/22 11:29:32;;;;;;;9.43;3.10;;;8.30;99.90;;;;;;5034466;28;20444;-66
2021/03/22 11:32:01;;;;;;;8.60;3.00;;;8.40;99.90;;;;;;5034733;28;20828;-70
2021/03/22 11:34:32;;;;;;;7.90;3.20;;;8.70;99.90;;;;;;5034613;28;20444;-66
2021/03/22 11:37:05;;;;;;;7.30;2.87;;;9.00;99.90;;;;;;5034957;28;20436;-67
2021/03/22 11:39:33;;;;;;;7.00;2.80;;;9.30;99.90;;;;;;5035434;28;20452;-67
2021/03/22 11:42:16;;;;;;;10.43;3.13;;;9.40;99.90;;;;;;5034904;28;20502;-67
2021/03/22 11:44:42;;;;;;;6.63;2.90;;;9.50;99.90;;;;;;5035926;28;20435;-70
2021/03/22 11:47:41;;;;;;;7.03;2.80;;;9.60;99.90;;;;;;5034351;28;20522;-71
2021/03/22 11:50:29;;;;;;;8.50;3.20;;;9.40;99.90;;;;;;5035011;28;20441;-68
2021/03/22 11:53:05;;;;;;;6.70;3.17;;;9.20;99.90;;;;;;5021645;28;20472;-66
2021/03/22 11:55:41;;;;;;;8.20;3.40;;;9.30;99.90;;;;;;5034073;28;20459;-68
2021/03/22 11:58:26;;;;;;;7.40;3.00;;;9.20;99.90;;;;;;5034682;28;20458;-69
2021/03/22 12:00:53;;;;;;;8.17;2.93;;;9.10;99.90;;;;;;5034089;28;20464;-69
2021/03/22 12:03:27;;;;;;;7.60;3.43;;;8.80;99.90;;;;;;5034416;28;20483;-69
2021/03/22 12:06:06;;;;;;;9.93;2.57;;;8.70;99.90;;;;;;5034403;28;20914;-69
2021/03/22 12:08:38;;;;;;;7.50;2.70;;;8.50;99.90;;;;;;5034034;28;20975;-69
2021/03/22 12:11:07;;;;;;;6.50;3.00;;;8.40;99.90;;;;;;5034011;28;20472;-69
2021/03/22 12:13:33;;;;;;;6.50;3.00;;;8.20;99.90;;;;;;5033669;28;20448;-70
2021/03/22 12:16:00;;;;;;;6.90;2.80;;;8.20;99.90;;;;;;5034194;28;20455;-69
2021/03/22 12:18:29;;;;;;;6.97;3.03;;;8.10;99.90;;;;;;5034065;28;20827;-70
2021/03/22 12:20:55;;;;;;;6.60;2.90;;;7.90;99.90;;;;;;5034094;28;20479;-69
2021/03/22 12:23:22;;;;;;;6.67;2.30;;;7.70;99.90;;;;;;5034153;28;20486;-69
2021/03/22 12:25:49;;;;;;;8.70;3.03;;;7.70;99.90;;;;;;5033841;28;20918;-67
2021/03/22 12:28:15;;;;;;;5.13;3.10;;;7.70;99.90;;;;;;5033786;28;20460;-66
2021/03/22 12:30:41;;;;;;;5.37;2.27;;;7.70;99.90;;;;;;5034172;28;20452;-67
2021/03/22 12:33:24;;;;;;;3.33;2.03;;;7.70;99.90;;;;;;5037551;28;20526;-67
2021/03/22 12:35:50;;;;;;;5.90;3.30;;;7.50;99.90;;;;;;5037790;28;20458;-67
2021/03/22 12:38:16;;;;;;;7.83;3.23;;;7.40;99.90;;;;;;5037582;28;20456;-67
2021/03/22 12:40:44;;;;;;;5.87;2.97;;;7.30;99.90;;;;;;5037626;28;20542;-69
2021/03/22 12:43:19;;;;;;;7.07;2.70;;;7.30;99.90;;;;;;5037659;28;20478;-69
2021/03/22 12:45:46;;;;;;;6.73;3.17;;;7.20;99.90;;;;;;5038533;28;20451;-69
2021/03/22 12:48:12;;;;;;;7.00;3.13;;;7.30;99.90;;;;;;5037407;28;20455;-69
2021/03/22 12:50:40;;;;;;;7.20;3.17;;;7.40;99.90;;;;;;5037660;28;20502;-68
2021/03/22 12:53:09;;;;;;;4.33;3.30;;;7.40;99.90;;;;;;5037570;28;20459;-69
2021/03/22 12:55:36;;;;;;;5.63;3.00;;;7.30;99.90;;;;;;5037725;28;20499;-69
2021/03/22 12:58:06;;;;;;;8.47;3.03;;;7.50;99.90;;;;;;5037727;28;20574;-72
2021/03/22 13:00:32;;;;;;;7.70;4.00;;;7.60;99.90;;;;;;5037297;28;20475;-70
2021/03/22 13:02:59;;;;;;;9.10;3.27;;;7.70;99.90;;;;;;5036855;28;21004;-69
2021/03/22 13:05:28;;;;;;;12.90;3.30;;;7.80;99.90;;;;;;5037391;28;20458;-68
2021/03/22 13:07:55;;;;;;;7.73;3.83;;;7.80;99.90;;;;;;5036950;28;20961;-67
2021/03/22 13:10:23;;;;;;;8.13;3.60;;;8.00;99.90;;;;;;5037127;28;21013;-68
2021/03/22 13:12:49;;;;;;;11.00;3.30;;;8.10;99.90;;;;;;5036820;28;21036;-69
2021/03/22 13:15:26;;;;;;;6.60;2.80;;;8.30;99.90;;;;;;5036872;28;20456;-70
2021/03/22 13:17:52;;;;;;;5.53;3.17;;;8.40;99.90;;;;;;5036856;28;20436;-70
2021/03/22 13:20:20;;;;;;;3.20;2.63;;;8.40;99.90;;;;;;5037092;28;20460;-69
2021/03/22 13:22:46;;;;;;;4.83;2.63;;;8.40;99.90;;;;;;5036696;28;20557;-69
2021/03/22 13:25:14;;;;;;;5.40;2.73;;;8.30;99.90;;;;;;5036750;28;20444;-68
2021/03/22 13:27:40;;;;;;;7.00;2.87;;;8.40;99.90;;;;;;5037090;28;20456;-66
2021/03/22 13:30:09;;;;;;;5.43;2.90;;;8.30;99.90;;;;;;5036512;28;20452;-67
2021/03/22 13:32:36;;;;;;;6.40;3.10;;;8.30;99.90;;;;;;5036611;28;20472;-69
2021/03/22 13:35:03;;;;;;;11.10;2.83;;;8.20;99.90;;;;;;5036466;28;20460;-69
2021/03/22 13:37:29;;;;;;;3.93;2.37;;;8.30;99.90;;;;;;5036450;28;20462;-68
2021/03/22 13:39:55;;;;;;;8.27;3.10;;;8.40;99.90;;;;;;5036419;28;20456;-71
2021/03/22 13:42:22;;;;;;;5.73;2.63;;;8.40;99.90;;;;;;5035949;28;20909;-69
2021/03/22 13:44:48;;;;;;;7.43;3.13;;;8.40;99.90;;;;;;5035658;28;20491;-68
2021/03/22 13:47:14;;;;;;;5.50;3.13;;;8.40;99.90;;;;;;5036640;28;20469;-69
2021/03/22 13:49:42;;;;;;;5.97;2.90;;;8.40;99.90;;;;;;5036554;28;20441;-69
2021/03/22 13:52:16;;;;;;;5.33;3.10;;;8.40;99.90;;;;;;5035965;28;20476;-69
2021/03/22 13:54:42;;;;;;;6.07;3.00;;;8.60;99.90;;;;;;5036070;28;20822;-69
2021/03/22 13:57:09;;;;;;;4.63;3.00;;;8.60;99.90;;;;;;5035648;28;20463;-67
2021/03/22 13:59:36;;;;;;;6.03;3.00;;;8.50;99.90;;;;;;5035987;28;20452;-70
2021/03/22 14:02:02;;;;;;;8.00;2.70;;;8.50;99.90;;;;;;5035787;28;20538;-70
2021/03/22 14:04:29;;;;;;;11.57;3.53;;;8.50;99.90;;;;;;5036177;28;20452;-70
2021/03/22 14:06:56;;;;;;;9.43;3.17;;;8.50;99.90;;;;;;5035700;28;20452;-71
2021/03/22 14:09:22;;;;;;;4.27;2.80;;;8.60;99.90;;;;;;5035991;28;20507;-67
2021/03/22 14:11:51;;;;;;;6.17;3.13;;;8.50;99.90;;;;;;5035628;28;20468;-69
2021/03/22 14:14:17;;;;;;;7.90;3.20;;;8.30;99.90;;;;;;5035823;28;20456;-67
2021/03/22 14:16:45;;;;;;;8.67;4.20;;;8.20;99.90;;;;;;5035720;28;20452;-68
2021/03/22 14:19:11;;;;;;;8.87;3.97;;;8.20;99.90;;;;;;5035550;28;20961;-70
2021/03/22 14:21:37;;;;;;;8.63;3.70;;;8.00;99.90;;;;;;5035742;28;20467;-69
2021/03/22 14:24:06;;;;;;;10.97;3.87;;;7.80;99.90;;;;;;5035769;28;20452;-70
2021/03/22 14:26:32;;;;;;;7.57;4.10;;;7.80;99.90;;;;;;5035407;28;20451;-66
2021/03/22 14:28:59;;;;;;;4.80;3.20;;;7.70;99.90;;;;;;5035452;28;20456;-67
2021/03/22 14:31:28;;;;;;;5.10;3.97;;;7.70;99.90;;;;;;5035586;28;20475;-70
2021/03/22 14:33:56;;;;;;;6.67;4.30;;;7.60;99.90;;;;;;5035561;28;20510;-69
2021/03/22 14:36:25;;;;;;;9.90;3.90;;;7.60;99.90;;;;;;5035667;28;20456;-69
2021/03/22 14:38:51;;;;;;;6.80;3.40;;;7.70;99.90;;;;;;5035041;28;20883;-70
2021/03/22 14:41:19;;;;;;;6.53;4.30;;;7.80;99.90;;;;;;5035215;28;20846;-69
2021/03/22 14:43:45;;;;;;;6.07;4.43;;;7.80;99.90;;;;;;5034367;28;20460;-70
2021/03/22 14:46:11;;;;;;;9.43;4.50;;;7.70;99.90;;;;;;5033854;28;21011;-69
2021/03/22 14:48:37;;;;;;;5.00;3.90;;;7.70;99.90;;;;;;5034630;28;20456;-69
2021/03/22 14:51:04;;;;;;;8.83;5.97;;;7.60;99.90;;;;;;5034153;28;20464;-69
2021/03/22 14:53:30;;;;;;;13.00;7.17;;;7.60;99.90;;;;;;5037927;28;20452;-67
2021/03/22 14:55:57;;;;;;;6.53;4.50;;;7.60;99.90;;;;;;5037719;28;20459;-66
2021/03/22 14:58:24;;;;;;;7.03;3.83;;;7.70;99.90;;;;;;5034717;28;20819;-66
2021/03/22 15:00:50;;;;;;;13.20;6.00;;;7.70;99.90;;;;;;5034154;28;20475;-66
2021/03/22 15:03:16;;;;;;;6.40;4.07;;;7.70;99.90;;;;;;5033942;28;20813;-68
2021/03/22 15:05:44;;;;;;;9.07;4.90;;;7.80;99.90;;;;;;5033952;28;20456;-66
2021/03/22 15:08:11;;;;;;;7.63;4.13;;;7.80;99.90;;;;;;5034211;28;20459;-66
2021/03/22 15:10:39;;;;;;;6.33;4.00;;;7.80;99.90;;;;;;5033814;28;20455;-66
2021/03/22 15:13:07;;;;;;;7.87;3.70;;;7.70;99.90;;;;;;5034297;28;20448;-67
2021/03/22 15:15:36;;;;;;;3.93;3.03;;;7.70;99.90;;;;;;5033686;28;20958;-66
2021/03/22 15:18:08;;;;;;;7.83;3.40;;;7.70;99.90;;;;;;5033835;28;20459;-66
2021/03/22 15:20:35;;;;;;;7.27;3.80;;;7.60;99.90;;;;;;5033785;28;20460;-66
2021/03/22 15:23:02;;;;;;;5.07;3.90;;;7.70;99.90;;;;;;5033471;28;20484;-66
2021/03/22 15:25:32;;;;;;;8.10;3.90;;;7.70;99.90;;;;;;5034092;28;20486;-66
2021/03/22 15:27:59;;;;;;;9.90;4.53;;;7.70;99.90;;;;;;5033859;28;20479;-66
2021/03/22 15:30:26;;;;;;;7.03;4.50;;;7.50;99.90;;;;;;5033840;28;20459;-66
2021/03/22 15:32:53;;;;;;;4.40;3.83;;;7.60;99.90;;;;;;5033933;28;20891;-66
2021/03/22 15:35:20;;;;;;;7.67;3.83;;;7.60;99.90;;;;;;5033859;28;20943;-68
2021/03/22 15:37:46;;;;;;;4.37;3.97;;;7.60;99.90;;;;;;5033530;28;21026;-67
2021/03/22 15:40:15;;;;;;;5.63;4.93;;;7.60;99.90;;;;;;5033857;28;20476;-67
2021/03/22 15:42:41;;;;;;;7.30;4.73;;;7.60;99.90;;;;;;5033742;28;20530;-67
2021/03/22 15:45:10;;;;;;;6.73;4.63;;;7.60;99.90;;;;;;5036047;28;20455;-71
2021/03/22 15:47:36;;;;;;;7.27;4.90;;;7.50;99.90;;;;;;5036203;28;20939;-69
2021/03/22 15:50:04;;;;;;;7.00;5.17;;;7.40;99.90;;;;;;5034666;28;20463;-68
2021/03/22 15:52:32;;;;;;;9.37;5.00;;;7.30;99.90;;;;;;5033816;28;20487;-67
2021/03/22 15:54:58;;;;;;;7.63;5.73;;;7.40;99.90;;;;;;5034374;28;20467;-67
2021/03/22 15:57:24;;;;;;;8.50;6.00;;;7.30;99.90;;;;;;5037301;28;20594;-69
2021/03/22 15:59:50;;;;;;;7.07;5.27;;;7.30;99.90;;;;;;5038372;28;20452;-69
2021/03/22 16:02:17;;;;;;;7.60;5.70;;;7.30;99.90;;;;;;5038112;28;20468;-68
2021/03/22 16:04:43;;;;;;;8.93;5.03;;;7.30;99.90;;;;;;5037615;28;20482;-67
2021/03/22 16:07:10;;;;;;;6.87;4.50;;;7.30;99.90;;;;;;5037964;28;20455;-67
2021/03/22 16:09:36;;;;;;;7.27;5.20;;;7.20;99.90;;;;;;5037201;28;20451;-68
2021/03/22 16:12:03;;;;;;;8.63;5.20;;;7.20;99.90;;;;;;5037365;28;20495;-68
2021/03/22 16:14:29;;;;;;;8.70;4.83;;;7.10;99.90;;;;;;5037418;28;20448;-70
2021/03/22 16:16:55;;;;;;;11.40;5.20;;;7.10;99.90;;;;;;5037240;28;20839;-69
2021/03/22 16:19:21;;;;;;;8.83;5.10;;;7.20;99.90;;;;;;5037414;28;20506;-68
2021/03/22 16:21:47;;;;;;;8.93;5.00;;;7.20;99.90;;;;;;5037079;28;20491;-68
2021/03/22 16:24:14;;;;;;;7.33;4.87;;;7.20;99.90;;;;;;5036889;28;21020;-68
2021/03/22 16:26:40;;;;;;;8.33;5.70;;;7.20;99.90;;;;;;5037404;28;20443;-69
2021/03/22 16:29:07;;;;;;;9.27;6.20;;;7.20;99.90;;;;;;5036822;28;20460;-68
2021/03/22 16:31:33;;;;;;;6.13;5.50;;;7.30;99.90;;;;;;5037049;28;20472;-69
2021/03/22 16:33:59;;;;;;;8.13;6.40;;;7.30;99.90;;;;;;5037108;28;20459;-67
2021/03/22 16:36:26;;;;;;;8.67;6.50;;;7.40;99.90;;;;;;5036639;28;20456;-68
2021/03/22 16:38:52;;;;;;;15.87;5.53;;;7.40;99.90;;;;;;5037781;28;20809;-68
2021/03/22 16:41:21;;;;;;;8.90;6.30;;;7.40;99.90;;;;;;5036721;28;20479;-68
2021/03/22 16:43:48;;;;;;;9.20;6.73;;;7.30;99.90;;;;;;5036997;28;20551;-68
2021/03/22 16:46:17;;;;;;;8.03;5.90;;;7.40;99.90;;;;;;5036811;28;20455;-68
2021/03/22 16:48:44;;;;;;;8.63;6.07;;;7.40;99.90;;;;;;5037146;28;20860;-68
2021/03/22 16:51:10;;;;;;;10.83;6.83;;;7.40;99.90;;;;;;5036785;28;20467;-67
2021/03/22 16:53:36;;;;;;;10.80;6.00;;;7.40;99.90;;;;;;5036607;28;20458;-67
2021/03/22 16:56:05;;;;;;;7.50;5.60;;;7.50;99.90;;;;;;5036797;28;20567;-67
2021/03/22 16:58:32;;;;;;;7.97;6.07;;;7.40;99.90;;;;;;5036632;28;20458;-67
2021/03/22 17:00:58;;;;;;;6.77;5.70;;;7.50;99.90;;;;;;5036309;28;20487;-67
2021/03/22 17:03:24;;;;;;;8.73;6.37;;;7.50;99.90;;;;;;5036129;28;20942;-68
2021/03/22 17:05:52;;;;;;;6.63;5.33;;;7.50;99.90;;;;;;5036607;28;20447;-67
2021/03/22 17:08:21;;;;;;;6.43;5.53;;;7.50;99.90;;;;;;5036231;28;20456;-68
2021/03/22 17:10:47;;;;;;;11.47;8.97;;;7.50;99.90;;;;;;5036225;28;20433;-67
2021/03/22 17:13:15;;;;;;;11.57;6.67;;;7.50;99.90;;;;;;5036252;28;20455;-68
2021/03/22 17:15:43;;;;;;;7.07;5.93;;;7.60;99.90;;;;;;5036848;28;20456;-68
2021/03/22 17:18:10;;;;;;;7.80;5.97;;;7.60;99.90;;;;;;5035168;28;20475;-68
2021/03/22 17:20:37;;;;;;;6.67;5.33;;;7.60;99.90;;;;;;5036643;28;20469;-69
2021/03/22 17:23:04;;;;;;;7.37;6.67;;;7.60;99.90;;;;;;5036081;28;20506;-68
2021/03/22 17:25:38;;;;;;;6.17;5.33;;;7.50;99.90;;;;;;5036019;28;20460;-68
2021/03/22 17:28:06;;;;;;;13.00;6.37;;;7.50;99.90;;;;;;5036391;28;20467;-68
2021/03/22 17:30:35;;;;;;;14.40;6.63;;;7.50;99.90;;;;;;5036019;28;20452;-67
2021/03/22 17:33:03;;;;;;;7.90;6.80;;;7.50;99.90;;;;;;5035992;28;20479;-68
2021/03/22 17:35:31;;;;;;;8.67;5.97;;;7.30;99.90;;;;;;5035881;28;20463;-69
2021/03/22 17:37:57;;;;;;;10.60;6.50;;;7.20;99.90;;;;;;5035624;28;20452;-68
2021/03/22 17:40:26;;;;;;;12.13;6.33;;;7.30;99.90;;;;;;5035818;28;20484;-68
2021/03/22 17:42:52;;;;;;;8.27;5.50;;;7.30;99.90;;;;;;5035762;28;20985;-68
2021/03/22 17:45:20;;;;;;;10.00;6.53;;;7.30;99.90;;;;;;5035760;28;20511;-68
2021/03/22 17:47:46;;;;;;;10.33;6.67;;;7.30;99.90;;;;;;5035956;28;20463;-68
2021/03/22 17:50:16;;;;;;;11.07;6.40;;;7.30;99.90;;;;;;5035650;28;20456;-68
2021/03/22 17:52:42;;;;;;;9.73;7.00;;;7.30;99.90;;;;;;5035491;28;20471;-70
2021/03/22 17:55:09;;;;;;;8.90;6.20;;;7.20;99.90;;;;;;5036600;28;20495;-70
2021/03/22 17:57:35;;;;;;;9.13;5.97;;;7.20;99.90;;;;;;5036410;28;20455;-68
2021/03/22 18:00:02;;;;;;;11.13;6.80;;;7.10;99.90;;;;;;5036738;28;20566;-67
2021/03/22 18:02:28;;;;;;;8.67;6.70;;;7.10;99.90;;;;;;5036345;28;20499;-67
2021/03/22 18:04:54;;;;;;;8.43;6.17;;;7.10;99.90;;;;;;5036212;28;20440;-65
2021/03/22 18:07:21;;;;;;;8.10;6.40;;;7.10;99.90;;;;;;5036064;28;20823;-63
2021/03/22 18:09:47;;;;;;;8.80;6.80;;;7.10;99.90;;;;;;5036180;28;20469;-63
2021/03/22 18:12:15;;;;;;;9.53;6.10;;;7.10;99.90;;;;;;5035689;28;21040;-64
2021/03/22 18:14:41;;;;;;;8.37;6.23;;;7.10;99.90;;;;;;5036084;28;20452;-66